createdAt,value
2019-03-09T00:02:18.092Z,5.35
2019-03-09T00:05:11.145Z,2.62
2019-03-09T00:08:03.944Z,4.45
2019-03-09T00:10:56.999Z,1.22
2019-03-09T00:13:50.060Z,2.50
2019-03-09T00:16:43.113Z,2.72
2019-03-09T00:19:37.196Z,4.12
2019-03-09T00:22:32.659Z,1.15
2019-03-09T00:25:31.751Z,6.72
2019-03-09T00:28:33.516Z,3.60
2019-03-09T00:31:50.631Z,6.42
2019-03-09T00:34:43.433Z,3.85
2019-03-09T00:37:36.230Z,7.03
2019-03-09T00:40:25.447Z,2.37
2019-03-09T00:43:14.666Z,2.22
2019-03-09T00:46:07.719Z,1.80
2019-03-09T00:49:11.212Z,1.52
2019-03-09T00:52:02.023Z,3.80
2019-03-09T00:54:55.088Z,2.65
2019-03-09T00:57:49.940Z,4.25
2019-03-09T01:00:42.994Z,1.77
2019-03-09T01:03:35.783Z,1.90
2019-03-09T01:06:29.350Z,3.42
2019-03-09T01:09:22.151Z,1.40
2019-03-09T01:12:15.472Z,4.90
2019-03-09T01:15:09.031Z,1.60
2019-03-09T01:17:58.376Z,0.60
2019-03-09T01:20:52.592Z,1.40
2019-03-09T01:23:45.396Z,3.05
2019-03-09T01:26:39.212Z,1.12
2019-03-09T01:29:32.274Z,2.87
2019-03-09T01:32:25.064Z,2.47
2019-03-09T01:35:18.385Z,1.55
2019-03-09T01:38:11.432Z,1.30
2019-03-09T01:41:04.999Z,2.83
2019-03-09T01:43:59.338Z,0.82
2019-03-09T01:46:52.656Z,2.15
2019-03-09T01:49:45.704Z,0.60
2019-03-09T01:52:38.758Z,2.05
2019-03-09T01:55:31.824Z,1.50
2019-03-09T01:58:24.872Z,1.12
2019-03-09T02:01:17.927Z,0.95
2019-03-09T02:04:10.728Z,0.70
2019-03-09T02:07:03.783Z,1.65
2019-03-09T02:09:52.998Z,0.72
2019-03-09T02:12:47.080Z,0.80
2019-03-09T02:15:40.140Z,1.85
2019-03-09T02:18:32.936Z,1.17
2019-03-09T02:21:25.739Z,0.60
2019-03-09T02:24:18.790Z,2.22
2019-03-09T02:27:11.861Z,0.70
2019-03-09T02:30:05.443Z,1.32
2019-03-09T02:32:58.472Z,0.72
2019-03-09T02:35:51.551Z,0.60
2019-03-09T02:38:57.640Z,0.50
2019-03-09T02:41:50.704Z,1.35
2019-03-09T02:44:43.758Z,0.98
2019-03-09T02:47:36.809Z,0.60
2019-03-09T02:50:31.401Z,0.93
2019-03-09T02:53:24.457Z,0.98
2019-03-09T02:56:17.513Z,0.50
2019-03-09T02:59:10.590Z,1.50
2019-03-09T03:02:17.970Z,0.68
2019-03-09T03:05:11.102Z,0.60
2019-03-09T03:08:05.867Z,0.78
2019-03-09T03:10:58.934Z,0.70
2019-03-09T03:13:52.233Z,0.50
2019-03-09T03:16:45.554Z,0.70
2019-03-09T03:19:38.858Z,0.60
2019-03-09T03:22:32.170Z,0.50
2019-03-09T03:25:26.763Z,0.50
2019-03-09T03:28:20.329Z,0.72
2019-03-09T03:31:13.128Z,0.82
2019-03-09T03:34:06.193Z,1.07
2019-03-09T03:36:59.243Z,1.17
2019-03-09T03:39:52.560Z,0.68
2019-03-09T03:42:45.612Z,0.60
2019-03-09T03:45:38.924Z,0.60
2019-03-09T03:48:31.979Z,0.60
2019-03-09T03:51:25.033Z,0.60
2019-03-09T03:54:18.092Z,0.55
2019-03-09T03:57:11.407Z,0.60
2019-03-09T04:00:04.712Z,0.60
2019-03-09T04:02:57.775Z,0.50
2019-03-09T04:05:50.831Z,0.50
2019-03-09T04:08:43.880Z,0.60
2019-03-09T04:11:36.937Z,0.65
2019-03-09T04:14:29.991Z,0.78
2019-03-09T04:17:25.863Z,0.50
2019-03-09T04:20:18.663Z,0.60
2019-03-09T04:23:11.724Z,0.95
2019-03-09T04:26:00.941Z,0.60
2019-03-09T04:28:54.002Z,0.60
2019-03-09T04:31:47.048Z,0.60
2019-03-09T04:34:36.265Z,0.60
2019-03-09T04:37:29.321Z,0.60
2019-03-09T04:40:18.756Z,0.70
2019-03-09T04:43:11.590Z,0.55
2019-03-09T04:46:04.904Z,0.50
2019-03-09T04:48:57.703Z,0.53
2019-03-09T04:51:51.783Z,0.88
2019-03-09T04:54:44.584Z,1.57
2019-03-09T04:57:41.487Z,0.50
2019-03-09T05:00:34.536Z,0.60
2019-03-09T05:03:27.590Z,1.10
2019-03-09T05:06:20.397Z,0.50
2019-03-09T05:09:30.342Z,0.60
2019-03-09T05:12:23.143Z,0.57
2019-03-09T05:15:15.944Z,0.65
2019-03-09T05:18:10.793Z,0.68
2019-03-09T05:21:03.592Z,0.70
2019-03-09T05:23:57.689Z,0.70
2019-03-09T05:26:50.469Z,0.72
2019-03-09T05:29:43.272Z,0.80
2019-03-09T05:32:36.071Z,2.87
2019-03-09T05:35:30.928Z,0.60
2019-03-09T05:38:24.998Z,0.80
2019-03-09T05:41:19.085Z,1.20
2019-03-09T05:44:12.138Z,2.52
2019-03-09T05:47:04.936Z,1.00
2019-03-09T05:49:57.735Z,1.72
2019-03-09T05:52:55.142Z,0.75
2019-03-09T05:55:47.949Z,0.60
2019-03-09T05:58:44.592Z,0.80
2019-03-09T06:01:37.393Z,2.98
2019-03-09T06:04:30.447Z,1.00
2019-03-09T06:07:23.498Z,0.75
2019-03-09T06:10:17.319Z,1.55
2019-03-09T06:13:10.118Z,0.93
2019-03-09T06:15:57.451Z,0.70
2019-03-09T06:18:50.355Z,1.30
2019-03-09T06:21:43.400Z,0.70
2019-03-09T06:24:36.455Z,0.82
2019-03-09T06:27:29.514Z,1.25
2019-03-09T06:30:22.311Z,0.95
2019-03-09T06:33:25.606Z,0.60
2019-03-09T06:36:20.199Z,0.82
2019-03-09T06:39:10.187Z,0.88
2019-03-09T06:42:05.040Z,0.70
2019-03-09T06:44:57.832Z,1.95
2019-03-09T06:47:50.634Z,0.75
2019-03-09T06:50:44.715Z,1.20
2019-03-09T06:53:37.767Z,0.90
2019-03-09T06:56:33.640Z,0.90
2019-03-09T06:59:26.696Z,0.85
2019-03-09T07:02:19.750Z,1.60
2019-03-09T07:05:13.067Z,0.80
2019-03-09T07:08:05.870Z,1.07
2019-03-09T07:10:58.919Z,1.30
2019-03-09T07:13:53.149Z,3.92
2019-03-09T07:16:45.036Z,0.98
2019-03-09T07:19:34.247Z,1.60
2019-03-09T07:22:27.303Z,1.85
2019-03-09T07:25:20.618Z,1.15
2019-03-09T07:28:31.335Z,1.07
2019-03-09T07:31:24.397Z,1.17
2019-03-09T07:34:28.713Z,1.62
2019-03-09T07:37:22.023Z,1.82
2019-03-09T07:40:14.828Z,1.70
2019-03-09T07:43:07.636Z,1.15
2019-03-09T07:46:00.683Z,1.40
2019-03-09T07:48:53.738Z,5.05
2019-03-09T07:51:46.793Z,2.65
2019-03-09T07:54:39.606Z,1.62
2019-03-09T07:57:32.905Z,2.02
2019-03-09T08:00:25.960Z,0.82
2019-03-09T08:03:19.024Z,2.05
2019-03-09T08:06:14.119Z,2.30
2019-03-09T08:09:08.200Z,2.75
2019-03-09T08:12:01.776Z,0.98
2019-03-09T08:14:55.091Z,5.47
2019-03-09T08:17:48.142Z,1.80
2019-03-09T08:20:37.424Z,1.05
2019-03-09T08:23:30.677Z,1.55
2019-03-09T08:26:24.501Z,1.50
2019-03-09T08:29:17.552Z,3.60
2019-03-09T08:32:10.611Z,2.45
2019-03-09T08:35:04.947Z,1.17
2019-03-09T08:37:58.258Z,1.50
2019-03-09T08:40:51.055Z,1.75
2019-03-09T08:43:44.107Z,1.57
2019-03-09T08:46:33.627Z,3.50
2019-03-09T08:49:26.905Z,2.95
2019-03-09T08:52:20.222Z,1.92
2019-03-09T08:55:14.815Z,4.60
2019-03-09T08:58:08.109Z,2.98
2019-03-09T09:01:01.437Z,2.58
2019-03-09T09:03:49.036Z,3.42
2019-03-09T09:06:42.462Z,2.67
2019-03-09T09:09:35.988Z,1.72
2019-03-09T09:12:29.546Z,1.72
2019-03-09T09:15:23.636Z,4.30
2019-03-09T09:18:18.225Z,4.72
2019-03-09T09:21:15.906Z,7.20
2019-03-09T09:24:12.538Z,4.22
2019-03-09T09:27:09.713Z,2.25
2019-03-09T09:30:08.902Z,4.10
2019-03-09T09:33:03.481Z,6.33
2019-03-09T09:35:58.323Z,2.75
2019-03-09T09:38:54.223Z,2.83
2019-03-09T09:41:50.577Z,3.22
2019-03-09T09:44:48.847Z,5.30
2019-03-09T09:47:45.163Z,2.60
2019-03-09T09:50:41.521Z,3.20
2019-03-09T09:53:37.406Z,1.90
2019-03-09T09:56:33.786Z,2.00
2019-03-09T09:59:34.763Z,5.58
2019-03-09T10:02:29.660Z,4.95
2019-03-09T10:05:24.485Z,7.50
2019-03-09T10:08:23.247Z,9.00
2019-03-09T10:11:14.414Z,12.63
2019-03-09T10:14:08.499Z,8.35
2019-03-09T10:17:03.615Z,12.18
2019-03-09T10:19:58.201Z,7.85
2019-03-09T10:23:03.498Z,9.38
2019-03-09T10:25:49.192Z,10.93
2019-03-09T10:28:43.520Z,15.00
2019-03-09T10:31:39.132Z,16.35
2019-03-09T10:34:34.486Z,10.43
2019-03-09T10:37:28.823Z,11.33
2019-03-09T10:40:19.758Z,13.30
2019-03-09T10:43:13.395Z,19.02
2019-03-09T10:46:04.357Z,18.82
2019-03-09T10:48:57.709Z,10.72
2019-03-09T10:52:05.612Z,16.93
2019-03-09T10:54:58.928Z,21.70
2019-03-09T10:57:51.978Z,18.82
2019-03-09T11:00:46.316Z,14.73
2019-03-09T11:03:39.661Z,13.90
2019-03-09T11:06:36.784Z,19.77
2019-03-09T11:09:34.044Z,30.88
2019-03-09T11:12:25.214Z,19.52
2019-03-09T11:15:18.764Z,24.60
2019-03-09T11:18:11.565Z,18.92
2019-03-09T11:21:04.882Z,15.03
2019-03-09T11:23:58.191Z,17.30
2019-03-09T11:26:51.497Z,26.02
2019-03-09T11:29:45.068Z,11.22
2019-03-09T11:32:38.127Z,20.08
2019-03-09T11:35:32.911Z,17.95
2019-03-09T11:38:24.490Z,29.40
2019-03-09T11:41:19.374Z,28.62
2019-03-09T11:44:11.884Z,18.98
2019-03-09T11:47:03.914Z,13.25
2019-03-09T11:49:56.715Z,15.53
2019-03-09T11:52:50.026Z,13.22
2019-03-09T11:55:43.341Z,14.85
2019-03-09T11:58:43.828Z,20.80
2019-03-09T12:01:36.877Z,13.15
2019-03-09T12:04:29.928Z,16.87
2019-03-09T12:07:24.529Z,15.75
2019-03-09T12:10:17.577Z,17.60
2019-03-09T12:13:10.896Z,17.12
2019-03-09T12:16:00.329Z,9.15
2019-03-09T12:18:53.431Z,14.28
2019-03-09T12:21:43.180Z,12.10
2019-03-09T12:24:37.225Z,9.40
2019-03-09T12:27:31.307Z,12.23
2019-03-09T12:30:24.361Z,14.07
2019-03-09T12:33:17.419Z,20.75
2019-03-09T12:36:10.728Z,19.07
2019-03-09T12:39:04.811Z,21.60
2019-03-09T12:41:58.122Z,20.97
2019-03-09T12:44:51.181Z,12.33
2019-03-09T12:47:44.749Z,17.30
2019-03-09T12:50:39.590Z,17.10
2019-03-09T12:53:33.162Z,12.47
2019-03-09T12:56:27.242Z,17.70
2019-03-09T12:59:20.299Z,16.10
2019-03-09T13:02:13.354Z,14.50
2019-03-09T13:05:06.408Z,18.42
2019-03-09T13:07:59.468Z,18.92
2019-03-09T13:10:52.520Z,19.05
2019-03-09T13:13:42.428Z,22.73
2019-03-09T13:16:35.561Z,22.02
2019-03-09T13:19:28.619Z,12.53
2019-03-09T13:22:21.935Z,10.45
2019-03-09T13:25:11.148Z,15.00
2019-03-09T13:28:04.205Z,10.68
2019-03-09T13:30:57.270Z,13.03
2019-03-09T13:33:50.326Z,13.48
2019-03-09T13:36:43.369Z,21.68
2019-03-09T13:39:36.426Z,11.50
2019-03-09T13:42:29.992Z,8.70
2019-03-09T13:45:22.027Z,12.37
2019-03-09T13:48:15.080Z,16.37
2019-03-09T13:51:08.137Z,9.70
2019-03-09T13:54:01.194Z,10.28
2019-03-09T13:56:56.041Z,18.75
2019-03-09T13:59:49.097Z,13.20
2019-03-09T14:02:42.158Z,12.65
2019-03-09T14:05:35.209Z,16.50
2019-03-09T14:08:28.777Z,9.60
2019-03-09T14:11:23.885Z,16.90
2019-03-09T14:14:16.939Z,17.20
2019-03-09T14:17:13.320Z,16.73
2019-03-09T14:20:06.380Z,9.55
2019-03-09T14:22:59.434Z,9.83
2019-03-09T14:25:52.744Z,16.77
2019-03-09T14:28:46.056Z,7.67
2019-03-09T14:31:39.113Z,12.63
2019-03-09T14:34:31.913Z,9.10
2019-03-09T14:37:24.974Z,16.17
2019-03-09T14:40:18.289Z,15.80
2019-03-09T14:43:07.592Z,14.60
2019-03-09T14:46:00.560Z,12.78
2019-03-09T14:48:54.633Z,10.08
2019-03-09T14:51:47.698Z,12.03
2019-03-09T14:54:41.001Z,16.82
2019-03-09T14:57:33.807Z,10.38
2019-03-09T15:00:19.180Z,9.70
2019-03-09T15:03:11.992Z,13.72
2019-03-09T15:06:05.043Z,14.45
2019-03-09T15:08:58.091Z,10.13
2019-03-09T15:11:51.145Z,6.85
2019-03-09T15:14:45.996Z,12.58
2019-03-09T15:17:39.305Z,11.22
2019-03-09T15:20:33.900Z,8.35
2019-03-09T15:23:27.208Z,13.93
2019-03-09T15:26:20.266Z,14.53
2019-03-09T15:29:13.064Z,7.17
2019-03-09T15:32:06.125Z,7.75
2019-03-09T15:35:00.542Z,7.83
2019-03-09T15:37:51.977Z,11.68
2019-03-09T15:40:45.033Z,15.63
2019-03-09T15:43:38.346Z,13.62
2019-03-09T15:46:31.402Z,13.13
2019-03-09T15:49:24.458Z,13.22
2019-03-09T15:52:18.543Z,7.22
2019-03-09T15:55:11.593Z,8.58
2019-03-09T15:58:04.395Z,12.70
2019-03-09T16:00:57.446Z,7.97
2019-03-09T16:03:50.502Z,9.45
2019-03-09T16:06:43.304Z,15.10
2019-03-09T16:09:37.393Z,9.08
2019-03-09T16:12:30.188Z,7.25
2019-03-09T16:15:20.175Z,15.90
2019-03-09T16:18:12.986Z,10.30
2019-03-09T16:21:06.026Z,6.12
2019-03-09T16:23:58.825Z,7.97
2019-03-09T16:26:52.903Z,6.53
2019-03-09T16:29:41.863Z,7.37
2019-03-09T16:32:34.920Z,13.45
2019-03-09T16:35:27.979Z,8.53
2019-03-09T16:38:20.778Z,6.78
2019-03-09T16:41:10.087Z,5.55
2019-03-09T16:44:03.053Z,7.58
2019-03-09T16:46:56.618Z,12.55
2019-03-09T16:49:49.414Z,8.10
2019-03-09T16:52:42.235Z,4.75
2019-03-09T16:55:36.038Z,7.42
2019-03-09T16:58:29.097Z,10.08
2019-03-09T17:01:21.897Z,6.97
2019-03-09T17:04:14.696Z,7.30
2019-03-09T17:07:07.494Z,6.65
2019-03-09T17:10:00.405Z,7.05
2019-03-09T17:12:53.351Z,7.53
2019-03-09T17:15:46.149Z,4.03
2019-03-09T17:18:39.206Z,9.93
2019-03-09T17:21:28.165Z,6.28
2019-03-09T17:24:21.224Z,6.85
2019-03-09T17:27:14.022Z,4.08
2019-03-09T17:30:07.592Z,8.13
2019-03-09T17:33:00.391Z,5.12
2019-03-09T17:35:53.451Z,6.45
2019-03-09T17:38:46.502Z,5.58
2019-03-09T17:41:39.304Z,7.62
2019-03-09T17:44:32.361Z,5.55
2019-03-09T17:47:25.420Z,5.40
2019-03-09T17:50:15.655Z,6.47
2019-03-09T17:53:08.457Z,3.58
2019-03-09T17:56:02.279Z,4.58
2019-03-09T17:58:56.359Z,9.28
2019-03-09T18:01:46.062Z,3.52
2019-03-09T18:04:39.143Z,8.70
2019-03-09T18:08:27.519Z,5.70
2019-03-09T18:11:21.630Z,5.40
2019-03-09T18:14:14.375Z,6.17
2019-03-09T18:17:07.177Z,5.75
2019-03-09T18:20:00.405Z,2.20
2019-03-09T18:22:53.288Z,4.37
2019-03-09T18:25:46.091Z,11.18
2019-03-09T18:28:40.679Z,4.25
2019-03-09T18:31:33.478Z,4.75
2019-03-09T18:34:27.301Z,2.20
2019-03-09T18:37:20.112Z,4.37
2019-03-09T18:40:13.162Z,2.87
2019-03-09T18:43:05.959Z,4.05
2019-03-09T18:45:53.126Z,5.03
2019-03-09T18:48:46.185Z,6.50
2019-03-09T18:51:39.757Z,3.95
2019-03-09T18:54:33.574Z,2.20
2019-03-09T18:57:26.633Z,3.55
2019-03-09T19:00:19.687Z,4.67
2019-03-09T19:03:12.490Z,5.15
2019-03-09T19:06:05.543Z,5.20
2019-03-09T19:08:58.352Z,5.62
2019-03-09T19:11:51.412Z,6.90
2019-03-09T19:14:44.462Z,5.00
2019-03-09T19:17:37.511Z,4.67
2019-03-09T19:20:31.084Z,8.98
2019-03-09T19:23:23.881Z,6.70
2019-03-09T19:26:16.938Z,2.67
2019-03-09T19:29:09.735Z,7.87
2019-03-09T19:32:02.537Z,2.72
2019-03-09T19:34:55.333Z,7.90
2019-03-09T19:37:49.414Z,9.48
2019-03-09T19:40:42.727Z,7.80
2019-03-09T19:43:35.784Z,5.85
2019-03-09T19:46:28.583Z,3.92
2019-03-09T19:49:22.405Z,4.05
2019-03-09T19:52:15.209Z,5.35
2019-03-09T19:55:08.263Z,7.37
2019-03-09T19:58:01.067Z,4.97
2019-03-09T20:00:55.147Z,4.25
2019-03-09T20:03:48.205Z,8.53
2019-03-09T20:06:45.098Z,7.80
2019-03-09T20:09:37.895Z,9.58
2019-03-09T20:12:31.720Z,6.60
2019-03-09T20:15:24.525Z,5.42
2019-03-09T20:18:17.580Z,7.97
2019-03-09T20:21:10.638Z,5.22
2019-03-09T20:24:03.436Z,7.37
2019-03-09T20:26:56.490Z,10.15
2019-03-09T20:29:49.547Z,4.00
2019-03-09T20:32:42.350Z,7.78
2019-03-09T20:35:35.656Z,6.97
2019-03-09T20:38:28.459Z,4.45
2019-03-09T20:41:24.145Z,9.68
2019-03-09T20:44:14.311Z,6.35
2019-03-09T20:47:07.367Z,3.58
2019-03-09T20:50:00.680Z,3.35
2019-03-09T20:52:53.734Z,8.28
2019-03-09T20:55:46.796Z,7.08
2019-03-09T20:58:39.861Z,9.68
2019-03-09T21:01:32.905Z,10.45
2019-03-09T21:04:27.499Z,3.30
2019-03-09T21:07:20.554Z,7.05
2019-03-09T21:10:13.352Z,6.58
2019-03-09T21:13:25.612Z,6.10
2019-03-09T21:16:18.406Z,5.78
2019-03-09T21:19:11.464Z,8.45
2019-03-09T21:22:04.524Z,7.15
2019-03-09T21:24:59.111Z,8.10
2019-03-09T21:27:51.913Z,9.38
2019-03-09T21:30:44.969Z,4.55
2019-03-09T21:33:38.792Z,5.42
2019-03-09T21:36:31.847Z,7.22
2019-03-09T21:39:24.907Z,5.10
2019-03-09T21:42:18.244Z,4.90
2019-03-09T21:45:11.274Z,4.67
2019-03-09T21:48:04.333Z,4.97
2019-03-09T21:50:51.755Z,4.80
2019-03-09T21:53:45.830Z,3.02
2019-03-09T21:56:40.936Z,3.40
2019-03-09T21:59:34.250Z,4.25
2019-03-09T22:02:28.331Z,5.45
2019-03-09T22:05:21.383Z,2.45
2019-03-09T22:08:15.466Z,3.72
2019-03-09T22:11:08.524Z,3.95
2019-03-09T22:14:01.574Z,5.25
2019-03-09T22:16:56.820Z,8.50
2019-03-09T22:19:47.431Z,2.85
2019-03-09T22:22:40.490Z,3.60
2019-03-09T22:25:33.288Z,3.40
2019-03-09T22:28:26.343Z,3.17
2019-03-09T22:31:19.400Z,7.08
2019-03-09T22:34:12.464Z,3.45
2019-03-09T22:37:05.772Z,2.08
2019-03-09T22:39:58.578Z,2.87
2019-03-09T22:42:51.367Z,2.95
2019-03-09T22:45:45.198Z,1.67
2019-03-09T22:48:39.271Z,8.00
2019-03-09T22:51:32.075Z,4.78
2019-03-09T22:54:24.870Z,2.47
2019-03-09T22:57:17.671Z,4.22
2019-03-09T23:00:04.840Z,3.30
2019-03-09T23:02:58.407Z,3.65
2019-03-09T23:05:51.461Z,3.52
2019-03-09T23:08:44.264Z,5.58
2019-03-09T23:11:38.343Z,4.30
2019-03-09T23:14:31.141Z,2.92
2019-03-09T23:17:25.223Z,5.15
2019-03-09T23:20:18.280Z,2.50
2019-03-09T23:23:11.081Z,2.40
2019-03-09T23:26:00.039Z,5.67
2019-03-09T23:29:02.824Z,4.03
2019-03-09T23:31:56.903Z,3.72
2019-03-09T23:34:49.705Z,3.83
2019-03-09T23:37:42.508Z,3.05
2019-03-09T23:40:35.303Z,4.78
2019-03-09T23:43:28.364Z,2.52
2019-03-09T23:46:21.162Z,7.22
2019-03-09T23:49:18.056Z,4.22
2019-03-09T23:52:10.856Z,1.90
2019-03-09T23:55:03.657Z,3.20
2019-03-09T23:57:56.716Z,6.37
